Time;durP1;ratioP1;P1;durP2;ratioP2;P2;SDS_P1;SDS_P2;PMS_P1;PMS_P2;Temp;Humidity;BMP_temperature;BMP_pressure;BME280_temperature;BME280_humidity;BME280_pressure;Samples;Min_cycle;Max_cycle;Signal;HPM_P1;HPM_P2
2022/09/19 00:01:27;;;;;;;15.73;3.58;;;;;;;-148.88;100.00;75984.41;5055260;28;20021;-86
2022/09/19 00:03:58;;;;;;;17.60;3.38;;;;;;;-148.88;100.00;75984.41;5037430;28;20028;-86
2022/09/19 00:06:26;;;;;;;14.40;2.58;;;;;;;-148.88;100.00;75988.47;5055190;28;20028;-86
2022/09/19 00:08:52;;;;;;;13.40;4.22;;;;;;;-148.88;100.00;75980.34;5037349;28;20028;-85
2022/09/19 00:11:19;;;;;;;10.35;4.22;;;;;;;-148.88;100.00;75988.47;5055227;28;20118;-85
2022/09/19 00:13:47;;;;;;;13.35;4.40;;;;;;;-148.88;100.00;75984.41;5055049;28;20394;-85
2022/09/19 00:16:18;;;;;;;7.00;2.15;;;;;;;-148.88;100.00;75984.41;5055004;28;20082;-86
2022/09/19 00:18:44;;;;;;;7.07;2.50;;;;;;;-148.88;100.00;75984.41;5053718;28;20025;-85
2022/09/19 00:21:10;;;;;;;13.32;4.30;;;;;;;-148.88;100.00;75990.50;5054756;28;20020;-85
2022/09/19 00:26:20;;;;;;;;;;;;;;;-148.88;100.00;75994.56;5054930;28;20159;-86
2022/09/19 00:28:46;;;;;;;10.40;2.40;;;;;;;-148.88;100.00;75996.59;5054782;28;20297;-86
2022/09/19 00:31:17;;;;;;;8.18;2.50;;;;;;;-148.88;100.00;75976.28;5054678;28;20052;-86
2022/09/19 00:33:44;;;;;;;7.57;2.35;;;;;;;-148.88;100.00;75980.34;5055078;28;20048;-86
2022/09/19 00:36:10;;;;;;;8.32;2.45;;;;;;;-148.88;100.00;75996.59;5054542;28;20162;-85
2022/09/19 00:38:35;;;;;;;9.57;2.35;;;;;;;-148.88;100.00;75996.59;5054571;28;20017;-85
2022/09/19 00:41:00;;;;;;;14.48;4.72;;;;;;;-148.88;100.00;76004.72;5054363;28;20097;-86
2022/09/19 00:43:44;;;;;;;12.35;4.22;;;;;;;-148.88;100.00;76008.78;5054815;28;20441;-86
2022/09/19 00:46:09;;;;;;;11.52;2.75;;;;;;;-148.88;100.00;76006.75;5054690;28;20029;-86
2022/09/19 00:48:35;;;;;;;15.25;5.03;;;;;;;-148.88;100.00;76002.69;5037446;28;20035;-86
2022/09/19 00:51:04;;;;;;;17.52;5.00;;;;;;;-148.88;100.00;75996.59;5054398;28;20107;-86
2022/09/19 00:53:30;;;;;;;15.63;4.28;;;;;;;-148.88;100.00;75996.59;5053120;28;20017;-85
2022/09/19 00:55:57;;;;;;;16.17;4.60;;;;;;;-148.88;100.00;76008.78;5036649;28;20048;-86
2022/09/19 00:58:32;;;;;;;17.15;4.80;;;;;;;-148.88;100.00;76008.78;5054495;28;20025;-86
2022/09/19 01:00:58;;;;;;;7.82;2.22;;;;;;;-148.88;100.00;76016.91;5054284;28;20479;-86
2022/09/19 01:03:27;;;;;;;14.60;5.05;;;;;;;-148.88;100.00;76029.09;5054026;28;20065;-86
2022/09/19 01:06:10;;;;;;;12.07;2.80;;;;;;;-148.88;100.00;76027.06;5053920;28;20021;-85
2022/09/19 01:08:50;;;;;;;9.35;2.70;;;;;;;-148.88;100.00;76027.06;5054206;28;20111;-86
2022/09/19 01:11:37;;;;;;;8.75;2.97;;;;;;;-148.88;100.00;76025.03;5053766;28;20029;-86
2022/09/19 01:14:28;;;;;;;9.82;2.97;;;;;;;-148.88;100.00;76031.13;5053962;28;20394;-85
2022/09/19 01:17:04;;;;;;;14.75;5.57;;;;;;;-148.88;100.00;76025.03;5053820;28;20044;-86
2022/09/19 01:19:43;;;;;;;14.68;4.80;;;;;;;-148.88;100.00;76020.97;5053643;28;20025;-86
2022/09/19 01:22:19;;;;;;;8.30;2.67;;;;;;;-148.88;100.00;76008.78;5054248;28;20103;-86
2022/09/19 01:24:55;;;;;;;16.02;5.50;;;;;;;-148.88;100.00;76008.78;5053935;28;20020;-86
2022/09/19 01:27:50;;;;;;;7.72;2.70;;;;;;;-148.88;100.00;76012.84;5036016;28;20025;-86
2022/09/19 01:30:16;;;;;;;11.57;3.10;;;;;;;-148.88;100.00;76014.88;5035657;28;20052;-86
2022/09/19 01:32:51;;;;;;;14.52;5.20;;;;;;;-148.88;100.00;76008.78;5052247;28;20399;-86
2022/09/19 01:35:23;;;;;;;16.08;5.22;;;;;;;-148.88;100.00;76000.66;5053839;28;20107;-86
2022/09/19 01:37:53;;;;;;;20.20;5.75;;;;;;;-148.88;100.00;76004.72;5052910;28;20387;-86
2022/09/19 01:40:21;;;;;;;12.85;5.60;;;;;;;-148.88;100.00;75994.56;5053650;28;20020;-86
2022/09/19 01:42:55;;;;;;;18.55;6.57;;;;;;;-148.88;100.00;75996.59;5053476;28;20091;-86
2022/09/19 01:45:28;;;;;;;15.60;6.10;;;;;;;-148.88;100.00;76008.78;5053415;28;20032;-87
2022/09/19 01:47:59;;;;;;;10.93;3.20;;;;;;;-148.88;100.00;75996.59;5053318;28;20090;-87
2022/09/19 01:50:38;;;;;;;21.65;7.13;;;;;;;-148.88;100.00;75994.56;5053336;28;20025;-87
2022/09/19 01:53:22;;;;;;;13.68;3.83;;;;;;;-148.88;100.00;75996.59;5053664;28;20023;-87
2022/09/19 01:56:09;;;;;;;18.45;6.82;;;;;;;-148.88;100.00;76000.66;5053727;28;20017;-87
2022/09/19 01:58:49;;;;;;;22.67;7.05;;;;;;;-148.88;100.00;76000.66;5053306;28;20044;-86
2022/09/19 02:01:29;;;;;;;15.18;4.68;;;;;;;-148.88;100.00;75988.47;5053305;28;20078;-87
2022/09/19 02:04:09;;;;;;;14.43;3.58;;;;;;;-148.88;100.00;75996.59;5053329;28;20031;-87
2022/09/19 02:06:48;;;;;;;16.05;7.00;;;;;;;-148.88;100.00;75998.63;5051728;28;20469;-86
2022/09/19 02:09:54;;;;;;;16.98;7.07;;;;;;;-148.88;100.00;76000.66;5053233;28;20367;-87
2022/09/19 02:12:23;;;;;;;18.65;7.20;;;;;;;-148.88;100.00;76000.66;5053285;28;20035;-86
2022/09/19 02:14:55;;;;;;;14.73;4.07;;;;;;;-148.88;100.00;76008.78;5052918;28;20029;-87
2022/09/19 02:17:31;;;;;;;19.10;6.82;;;;;;;-148.88;100.00;76002.69;5035085;28;20028;-87
2022/09/19 02:20:07;;;;;;;23.08;6.95;;;;;;;-148.88;100.00;76000.66;5052887;28;20059;-86
2022/09/19 02:22:37;;;;;;;15.60;4.63;;;;;;;-148.88;100.00;75994.56;5052880;28;20104;-87
2022/09/19 02:25:08;;;;;;;12.45;3.35;;;;;;;-148.88;100.00;75994.56;5052987;28;20082;-86
2022/09/19 02:27:44;;;;;;;23.58;7.05;;;;;;;-148.88;100.00;75996.59;5052870;28;20100;-87
2022/09/19 02:30:10;;;;;;;23.42;7.38;;;;;;;-148.88;100.00;75992.53;5052838;28;20036;-87
2022/09/19 02:32:37;;;;;;;14.43;6.00;;;;;;;-148.88;100.00;75984.41;5052968;28;20371;-86
2022/09/19 02:35:04;;;;;;;19.55;7.75;;;;;;;-148.88;100.00;75988.47;5052624;28;20025;-86
2022/09/19 02:40:10;;;;;;;17.35;6.65;;;;;;;-148.88;100.00;75998.63;5093961;28;20056;-79
2022/09/19 02:42:58;;;;;;;20.83;7.32;;;;;;;-148.88;100.00;76004.72;5077699;28;20401;-78
2022/09/19 02:45:43;;;;;;;20.45;7.88;;;;;;;-148.88;100.00;76004.72;5096488;28;20039;-78
2022/09/19 02:48:24;;;;;;;22.17;8.30;;;;;;;-148.88;100.00;76002.69;5097217;28;20393;-79
2022/09/19 02:51:03;;;;;;;18.20;7.68;;;;;;;-148.88;100.00;75996.59;5101069;28;20020;-78
2022/09/19 02:53:35;;;;;;;18.30;7.85;;;;;;;-148.88;100.00;76000.66;5082269;28;20489;-77
2022/09/19 02:56:03;;;;;;;19.50;7.78;;;;;;;-148.88;100.00;76004.72;5098495;28;20024;-78
2022/09/19 02:58:39;;;;;;;21.95;7.97;;;;;;;-148.88;100.00;76006.75;5081328;28;20030;-79
2022/09/19 03:01:12;;;;;;;19.13;7.30;;;;;;;-148.88;100.00;76004.72;5081866;28;20046;-77
2022/09/19 03:06:35;;;;;;;;;;;;;;;-148.88;100.00;76000.66;5101753;28;20054;-81
2022/09/19 03:09:03;;;;;;;10.40;3.35;;;;;;;-148.88;100.00;75996.59;5083213;28;20289;-81
2022/09/19 03:11:32;;;;;;;21.45;7.28;;;;;;;-148.88;100.00;76000.66;5101189;28;20035;-81
2022/09/19 03:13:59;;;;;;;22.38;8.07;;;;;;;-148.88;100.00;76010.81;5082048;28;20512;-81
2022/09/19 03:16:35;;;;;;;21.90;7.78;;;;;;;-148.88;100.00;76004.72;5100565;28;20024;-81
2022/09/19 03:19:09;;;;;;;15.38;7.18;;;;;;;-148.88;100.00;76014.88;5082293;28;20071;-81
2022/09/19 03:21:37;;;;;;;17.42;7.15;;;;;;;-148.88;100.00;76020.97;5100639;28;20052;-81
2022/09/19 03:24:03;;;;;;;18.50;8.10;;;;;;;-148.88;100.00;76008.78;5082390;28;20436;-81
2022/09/19 03:26:32;;;;;;;21.75;8.70;;;;;;;-148.88;100.00;76012.84;5100472;28;20024;-80
2022/09/19 03:28:58;;;;;;;19.85;7.57;;;;;;;-148.88;100.00;76012.84;5100529;28;20466;-81
2022/09/19 03:31:24;;;;;;;17.80;4.03;;;;;;;-148.88;100.00;76006.75;5098533;28;20190;-80
2022/09/19 03:33:51;;;;;;;18.85;7.40;;;;;;;-148.88;100.00;76020.97;5080381;28;20051;-80
2022/09/19 03:36:17;;;;;;;17.10;7.68;;;;;;;-148.88;100.00;76010.81;5082321;28;20023;-80
2022/09/19 03:38:44;;;;;;;17.73;7.22;;;;;;;-148.88;100.00;76020.97;5100628;28;20097;-78
2022/09/19 03:41:21;;;;;;;15.85;4.50;;;;;;;-148.88;100.00;76008.78;5100454;28;20020;-81
2022/09/19 03:43:47;;;;;;;20.45;4.85;;;;;;;-148.88;100.00;76029.09;5100885;28;20024;-80
2022/09/19 03:46:17;;;;;;;21.73;8.45;;;;;;;-148.88;100.00;76033.16;5081827;28;20486;-79
2022/09/19 03:48:45;;;;;;;27.15;8.95;;;;;;;-148.88;100.00;76031.13;5099577;28;20490;-79
2022/09/19 03:51:11;;;;;;;21.95;8.27;;;;;;;-148.88;100.00;76025.03;5099301;28;20096;-79
2022/09/19 03:53:37;;;;;;;24.60;9.20;;;;;;;-148.88;100.00;76033.16;5082094;28;20024;-79
2022/09/19 03:56:03;;;;;;;25.52;9.38;;;;;;;-148.88;100.00;76031.13;5100047;28;20035;-79
2022/09/19 03:58:30;;;;;;;23.25;9.23;;;;;;;-148.88;100.00;76029.09;5099866;28;20019;-79
2022/09/19 04:00:58;;;;;;;25.95;8.88;;;;;;;-148.88;100.00;76027.06;5080163;28;20494;-79
2022/09/19 04:03:24;;;;;;;20.55;8.82;;;;;;;-148.88;100.00;76025.03;5099457;28;20046;-79
2022/09/19 04:05:51;;;;;;;25.60;9.05;;;;;;;-148.88;100.00;76025.03;5080011;28;20031;-79
2022/09/19 04:08:17;;;;;;;26.85;9.57;;;;;;;-148.88;100.00;76025.03;5082765;28;20089;-79
2022/09/19 04:10:42;;;;;;;23.02;9.18;;;;;;;-148.88;100.00;76025.03;5082418;28;20454;-78
2022/09/19 04:13:09;;;;;;;31.73;9.77;;;;;;;-148.88;100.00;76027.06;5100121;28;20031;-79
2022/09/19 04:15:35;;;;;;;29.42;10.30;;;;;;;-148.88;100.00;76014.88;5100112;28;20150;-79
2022/09/19 04:18:01;;;;;;;22.83;8.95;;;;;;;-148.88;100.00;76025.03;5099509;28;20052;-79
2022/09/19 04:20:29;;;;;;;23.35;9.48;;;;;;;-148.88;100.00;76025.03;5081870;28;20035;-78
2022/09/19 04:22:55;;;;;;;22.52;9.40;;;;;;;-148.88;100.00;76029.09;5100146;28;20394;-79
2022/09/19 04:25:20;;;;;;;21.90;9.32;;;;;;;-148.88;100.00;76033.16;5100433;28;20050;-79
2022/09/19 04:27:46;;;;;;;21.73;8.18;;;;;;;-148.88;100.00;76031.13;5099420;28;20482;-78
2022/09/19 04:30:14;;;;;;;30.70;9.63;;;;;;;-148.88;100.00;76031.13;5081827;28;20024;-80
2022/09/19 04:32:41;;;;;;;28.00;8.20;;;;;;;-148.88;100.00;76027.06;5099560;28;20136;-78
2022/09/19 04:35:06;;;;;;;19.55;8.07;;;;;;;-148.88;100.00;76027.06;5081234;28;20077;-79
2022/09/19 04:37:31;;;;;;;22.42;8.05;;;;;;;-148.88;100.00;76012.84;5098870;28;20012;-78
2022/09/19 04:39:57;;;;;;;18.33;8.05;;;;;;;-148.88;100.00;76020.97;5098162;28;20032;-78
2022/09/19 04:42:22;;;;;;;22.15;7.47;;;;;;;-148.88;100.00;76016.91;5099381;28;20028;-78
2022/09/19 04:44:53;;;;;;;23.85;7.78;;;;;;;-148.88;100.00;76023.00;5101395;28;20036;-78
2022/09/19 04:47:18;;;;;;;21.15;4.50;;;;;;;-148.88;100.00;76031.13;5083049;28;20024;-78
2022/09/19 04:49:44;;;;;;;21.23;7.90;;;;;;;-148.88;100.00;76029.09;5100715;28;20088;-78
2022/09/19 04:52:12;;;;;;;19.05;7.60;;;;;;;-148.88;100.00;76025.03;5098247;28;20405;-79
2022/09/19 04:54:37;;;;;;;19.58;7.40;;;;;;;-148.88;100.00;76025.03;5099162;28;20041;-79
2022/09/19 04:57:07;;;;;;;20.95;7.75;;;;;;;-148.88;100.00;76025.03;5079783;28;20106;-78
2022/09/19 04:59:36;;;;;;;20.80;7.28;;;;;;;-148.88;100.00;76020.97;5099113;28;20028;-79
2022/09/19 05:02:02;;;;;;;21.23;7.70;;;;;;;-148.88;100.00;76020.97;5099270;28;20028;-79
2022/09/19 05:04:28;;;;;;;21.48;8.30;;;;;;;-148.88;100.00;76027.06;5080892;28;20019;-79
2022/09/19 05:06:53;;;;;;;18.25;7.40;;;;;;;-148.88;100.00;76010.81;5098059;28;20433;-79
2022/09/19 05:09:22;;;;;;;23.52;8.82;;;;;;;-148.88;100.00;76020.97;5079907;28;20020;-79
2022/09/19 05:11:47;;;;;;;22.70;8.60;;;;;;;-148.88;100.00;76025.03;5078685;28;20111;-79
2022/09/19 05:14:13;;;;;;;23.90;8.32;;;;;;;-148.88;100.00;76025.03;5079783;28;20066;-78
2022/09/19 05:16:42;;;;;;;20.10;7.75;;;;;;;-148.88;100.00;76029.09;5098420;28;20017;-79
2022/09/19 05:19:08;;;;;;;17.30;7.35;;;;;;;-148.88;100.00;76012.84;5079991;28;20077;-78
2022/09/19 05:21:34;;;;;;;24.02;8.68;;;;;;;-148.88;100.00;76033.16;5081757;28;20028;-78
2022/09/19 05:24:00;;;;;;;23.85;8.70;;;;;;;-148.88;100.00;76029.09;5098452;28;20031;-78
2022/09/19 05:26:26;;;;;;;22.83;9.27;;;;;;;-148.88;100.00;76031.13;5097895;28;20031;-78
2022/09/19 05:28:52;;;;;;;28.23;9.68;;;;;;;-148.88;100.00;76037.22;5079901;28;20020;-79
2022/09/19 05:31:18;;;;;;;21.13;9.18;;;;;;;-148.88;100.00;76029.09;5098868;28;20101;-78
2022/09/19 05:33:44;;;;;;;27.63;9.05;;;;;;;-148.88;100.00;76029.09;5098086;28;20016;-79
2022/09/19 05:36:09;;;;;;;24.25;8.82;;;;;;;-148.88;100.00;76027.06;5097823;28;20039;-79
2022/09/19 05:38:36;;;;;;;27.52;9.93;;;;;;;-148.88;100.00;76033.16;5098167;28;20044;-79
2022/09/19 05:41:03;;;;;;;25.55;9.48;;;;;;;-148.88;100.00;76027.06;5097209;28;20034;-79
2022/09/19 05:43:29;;;;;;;34.45;10.05;;;;;;;-148.88;100.00;76035.19;5098249;28;20076;-79
2022/09/19 05:45:55;;;;;;;30.17;10.10;;;;;;;-148.88;100.00;76033.16;5098660;28;20453;-78
2022/09/19 05:48:22;;;;;;;21.50;9.88;;;;;;;-148.88;100.00;76027.06;5098358;28;20028;-79
2022/09/19 05:50:48;;;;;;;27.40;10.27;;;;;;;-148.88;100.00;76037.22;5097935;28;20024;-78
2022/09/19 05:56:00;;;;;;;28.10;10.63;;;;;;;-148.88;100.00;76029.09;5098202;28;20091;-79
2022/09/19 05:58:28;;;;;;;28.60;10.27;;;;;;;-148.88;100.00;76010.81;5099200;28;20055;-78
2022/09/19 06:00:53;;;;;;;26.27;10.60;;;;;;;-148.88;100.00;76012.84;5098627;28;20055;-77
2022/09/19 06:03:20;;;;;;;22.85;9.48;;;;;;;-148.88;100.00;76012.84;5098455;28;20024;-78
2022/09/19 06:05:48;;;;;;;35.35;9.77;;;;;;;-148.88;100.00;76002.69;5098570;28;20069;-79
2022/09/19 06:08:18;;;;;;;23.27;9.77;;;;;;;-148.88;100.00;76000.66;5079801;28;20551;-79
2022/09/19 06:10:44;;;;;;;28.27;9.23;;;;;;;-148.88;100.00;75996.59;5097602;28;20039;-79
2022/09/19 06:13:16;;;;;;;27.77;9.57;;;;;;;-148.88;100.00;75990.50;5080074;28;20020;-78
2022/09/19 06:15:41;;;;;;;24.40;9.20;;;;;;;-148.88;100.00;75988.47;5079647;28;20056;-79
2022/09/19 06:18:09;;;;;;;21.05;8.25;;;;;;;-148.88;100.00;75984.41;5097874;28;20104;-79
2022/09/19 06:20:35;;;;;;;21.13;8.23;;;;;;;-148.88;100.00;75988.47;5079265;28;20077;-79
2022/09/19 06:23:03;;;;;;;25.27;8.30;;;;;;;-148.88;100.00;75984.41;5098007;28;20032;-78
2022/09/19 06:25:29;;;;;;;18.25;8.13;;;;;;;-148.88;100.00;75980.34;5102513;28;20028;-78
2022/09/19 06:27:56;;;;;;;20.00;7.82;;;;;;;-148.88;100.00;75984.41;5082866;28;20464;-79
2022/09/19 06:30:22;;;;;;;29.73;8.60;;;;;;;-148.88;100.00;75982.38;5101204;28;20107;-79
2022/09/19 06:32:49;;;;;;;27.05;7.93;;;;;;;-148.88;100.00;75974.25;5083298;28;20024;-79
2022/09/19 06:35:14;;;;;;;20.15;7.53;;;;;;;-148.88;100.00;75974.25;5103625;28;20027;-78
2022/09/19 06:37:40;;;;;;;30.05;7.65;;;;;;;-148.88;100.00;75964.09;5103162;28;20390;-77
2022/09/19 06:40:06;;;;;;;20.77;6.30;;;;;;;-148.88;100.00;75953.94;5103148;28;20039;-79
2022/09/19 06:42:31;;;;;;;18.92;6.50;;;;;;;-148.88;100.00;75955.97;5083393;28;20024;-79
2022/09/19 06:44:57;;;;;;;20.90;7.47;;;;;;;-148.88;100.00;75951.91;5083679;28;20031;-79
2022/09/19 06:47:22;;;;;;;21.50;6.30;;;;;;;-148.88;100.00;75941.75;5101354;28;20417;-79
2022/09/19 06:49:47;;;;;;;14.50;6.03;;;;;;;-148.88;100.00;75947.84;5101137;28;20031;-79
2022/09/19 06:52:13;;;;;;;18.13;6.30;;;;;;;-148.88;100.00;75951.91;5083242;28;20481;-79
2022/09/19 06:54:41;;;;;;;14.93;5.85;;;;;;;-148.88;100.00;75939.72;5082983;28;20114;-79
2022/09/19 06:57:07;;;;;;;13.38;5.57;;;;;;;-148.88;100.00;75937.69;5083667;28;20027;-79
2022/09/19 06:59:32;;;;;;;14.35;5.80;;;;;;;-148.88;100.00;75923.47;5082841;28;20021;-79
2022/09/19 07:01:58;;;;;;;16.70;5.50;;;;;;;-148.88;100.00;75911.28;5101381;28;20095;-79
2022/09/19 07:04:23;;;;;;;15.95;5.22;;;;;;;-148.88;100.00;75899.09;5101812;28;20127;-78
2022/09/19 07:06:48;;;;;;;12.63;5.22;;;;;;;-148.88;100.00;75899.09;5101061;28;20474;-79
2022/09/19 07:09:14;;;;;;;18.05;5.70;;;;;;;-148.88;100.00;75903.16;5083111;28;20027;-78
2022/09/19 07:11:39;;;;;;;16.35;5.20;;;;;;;-148.88;100.00;75907.22;5102399;28;20055;-79
2022/09/19 07:14:04;;;;;;;12.80;4.57;;;;;;;-148.88;100.00;75899.09;5102782;28;20114;-78
2022/09/19 07:16:31;;;;;;;15.07;4.75;;;;;;;-148.88;100.00;75903.16;5100792;28;20089;-79
2022/09/19 07:18:56;;;;;;;13.02;5.00;;;;;;;-148.88;100.00;75903.16;5100932;28;20035;-79
2022/09/19 07:21:22;;;;;;;13.68;4.75;;;;;;;-148.88;100.00;75909.25;5100941;28;20036;-79
2022/09/19 07:23:47;;;;;;;12.23;4.40;;;;;;;-148.88;100.00;75895.03;5082943;28;20055;-79
2022/09/19 07:26:15;;;;;;;15.90;4.63;;;;;;;-148.88;100.00;75895.03;5082618;28;20601;-79
2022/09/19 07:28:41;;;;;;;13.50;5.28;;;;;;;-148.88;100.00;75878.78;5082693;28;20028;-79
2022/09/19 07:31:06;;;;;;;17.77;4.50;;;;;;;-148.88;100.00;75870.66;5100980;28;20039;-79
2022/09/19 07:33:32;;;;;;;16.63;6.07;;;;;;;-148.88;100.00;75860.50;5100371;28;20028;-79
2022/09/19 07:35:58;;;;;;;16.13;4.60;;;;;;;-148.88;100.00;75862.53;5099513;28;20425;-79
2022/09/19 07:38:26;;;;;;;15.23;4.20;;;;;;;-148.88;100.00;75854.41;5100395;28;20038;-79
2022/09/19 07:40:52;;;;;;;16.60;4.30;;;;;;;-148.88;100.00;75846.28;5100383;28;20028;-79
2022/09/19 07:43:17;;;;;;;12.00;4.30;;;;;;;-148.88;100.00;75846.28;5100613;28;20572;-79
2022/09/19 07:45:47;;;;;;;17.20;4.03;;;;;;;-148.88;100.00;75850.34;5100470;28;20024;-79
2022/09/19 07:48:14;;;;;;;12.00;3.20;;;;;;;-148.88;100.00;75866.59;5101753;28;20107;-78
2022/09/19 07:50:40;;;;;;;12.45;3.03;;;;;;;-148.88;100.00;75862.53;5082797;28;20020;-79
2022/09/19 07:53:08;;;;;;;12.75;3.17;;;;;;;-148.88;100.00;75858.47;5082113;28;20024;-79
2022/09/19 07:55:35;;;;;;;9.50;2.22;;;;;;;-148.88;100.00;75866.59;5099307;28;20032;-79
2022/09/19 07:58:02;;;;;;;9.95;2.60;;;;;;;-148.88;99.86;75854.41;5081859;28;20020;-79
2022/09/19 08:00:28;;;;;;;7.93;2.65;;;;;;;-148.88;99.93;75850.34;5099791;28;20028;-79
2022/09/19 08:02:58;;;;;;;13.27;2.92;;;;;;;-148.88;99.31;75846.28;5100117;28;20043;-79
2022/09/19 08:05:25;;;;;;;13.07;2.78;;;;;;;-148.88;98.66;75830.03;5100110;28;20028;-79
2022/09/19 08:07:51;;;;;;;11.57;3.00;;;;;;;-148.88;99.79;75821.91;5100010;28;20024;-79
2022/09/19 08:10:17;;;;;;;9.07;2.75;;;;;;;-148.88;99.79;75817.84;5099117;28;20024;-79
2022/09/19 08:12:44;;;;;;;10.20;2.40;;;;;;;-148.88;99.16;75828.00;5099751;28;20111;-79
2022/09/19 08:15:15;;;;;;;9.35;2.70;;;;;;;-148.88;98.94;75825.97;5081327;28;20111;-79
2022/09/19 08:18:00;;;;;;;8.10;2.78;;;;;;;-148.88;99.88;75821.91;5082509;28;20031;-79
2022/09/19 08:20:31;;;;;;;10.98;2.65;;;;;;;-148.88;98.75;75838.16;5081780;28;20126;-79
2022/09/19 08:22:58;;;;;;;12.02;2.75;;;;;;;-148.88;99.67;75838.16;5081455;28;20074;-78
2022/09/19 08:25:28;;;;;;;10.68;2.50;;;;;;;-148.88;99.11;75834.09;5100810;28;20022;-78
2022/09/19 08:27:55;;;;;;;7.38;2.38;;;;;;;-148.88;99.56;75823.94;5099907;28;20028;-79
2022/09/19 08:30:21;;;;;;;10.40;2.30;;;;;;;-148.88;99.60;75825.97;5099539;28;20107;-79
2022/09/19 08:32:49;;;;;;;9.95;3.40;;;;;;;-148.88;98.92;75830.03;5099913;28;20035;-79
2022/09/19 08:35:15;;;;;;;9.80;2.75;;;;;;;-148.88;99.73;75809.72;5081822;28;20066;-79
2022/09/19 08:40:29;;;;;;;10.45;2.45;;;;;;;-148.88;97.61;75789.41;5054325;28;19921;-89
2022/09/19 08:43:26;;;;;;;12.02;2.80;;;;;;;-148.88;97.86;75789.41;5055043;28;20025;-90
2022/09/19 08:46:10;;;;;;;9.88;2.53;;;;;;;-148.88;98.14;75795.50;5054957;28;20039;-90
2022/09/19 08:48:47;;;;;;;12.82;3.25;;;;;;;-148.88;97.82;75787.38;5062913;28;20036;-90
2022/09/19 08:51:29;;;;;;;10.82;2.53;;;;;;;-148.88;97.86;75781.28;5076724;28;20029;-90
2022/09/19 08:54:02;;;;;;;10.13;2.60;;;;;;;-148.88;97.61;75763.00;5059743;28;20394;-91
2022/09/19 08:56:29;;;;;;;14.57;3.15;;;;;;;-148.88;96.22;75765.03;5075668;28;20051;-90
2022/09/19 08:59:01;;;;;;;11.65;3.00;;;;;;;-148.88;95.12;75765.03;5057074;28;20028;-89
2022/09/19 09:01:34;;;;;;;11.68;3.10;;;;;;;-148.88;96.36;75773.16;5076043;28;20031;-89
2022/09/19 09:04:20;;;;;;;11.18;2.30;;;;;;;-148.88;95.73;75783.31;5074664;28;20032;-90
2022/09/19 09:07:14;;;;;;;11.73;2.55;;;;;;;-148.88;96.50;75773.16;5074606;28;20040;-90
2022/09/19 09:09:53;;;;;;;10.10;2.60;;;;;;;-148.88;94.96;75791.44;5074664;28;20082;-90
2022/09/19 09:12:31;;;;;;;9.73;2.67;;;;;;;-148.88;95.26;75773.16;5074214;28;20503;-90
2022/09/19 09:15:31;;;;;;;11.00;2.85;;;;;;;-148.88;94.46;75777.22;5074681;28;20056;-90
2022/09/19 09:18:14;;;;;;;9.32;2.58;;;;;;;-148.88;94.72;75752.84;5073997;28;20518;-91
2022/09/19 09:21:05;;;;;;;9.93;3.05;;;;;;;-148.88;94.41;75716.28;5073969;28;20067;-89
2022/09/19 09:23:33;;;;;;;9.48;2.40;;;;;;;-148.88;91.95;75693.94;5074223;28;20067;-90
2022/09/19 09:26:24;;;;;;;10.13;2.35;;;;;;;-148.88;91.17;75689.88;5056874;28;20108;-90
2022/09/19 09:28:59;;;;;;;11.68;2.28;;;;;;;-148.88;90.72;75695.97;5081217;28;20032;-89
2022/09/19 09:31:35;;;;;;;12.02;2.30;;;;;;;-148.88;90.37;75708.16;5074279;28;20111;-88
2022/09/19 09:34:03;;;;;;;13.48;2.58;;;;;;;-148.88;92.04;75704.09;5074015;28;20027;-89
2022/09/19 09:36:48;;;;;;;9.60;2.00;;;;;;;-148.88;91.94;75695.97;5055906;28;20100;-90
2022/09/19 09:39:21;;;;;;;9.52;2.30;;;;;;;-148.88;89.94;75691.91;5073587;28;20036;-88
2022/09/19 09:41:50;;;;;;;12.23;2.40;;;;;;;-148.88;90.13;75671.59;5074231;28;20108;-89
2022/09/19 09:44:51;;;;;;;12.10;3.15;;;;;;;-148.88;89.07;75653.31;5073969;28;20020;-89
2022/09/19 09:47:44;;;;;;;11.88;2.47;;;;;;;-148.88;89.13;75669.56;5073670;28;20367;-88
2022/09/19 09:50:48;;;;;;;9.45;2.20;;;;;;;-148.88;89.22;75655.34;5073786;28;20530;-89
2022/09/19 09:53:38;;;;;;;10.15;2.30;;;;;;;-148.88;88.45;75626.91;5073240;28;20024;-89
2022/09/19 09:56:17;;;;;;;11.57;2.15;;;;;;;-148.88;85.55;75578.19;5073607;28;20086;-88
2022/09/19 09:58:57;;;;;;;11.00;2.05;;;;;;;-148.88;85.94;75545.69;5072938;28;20028;-89
2022/09/19 10:04:40;;;;;;;7.13;2.20;;;;;;;-148.88;83.17;75539.59;5073214;28;20035;-89
2022/09/19 10:07:38;;;;;;;7.82;1.83;;;;;;;-148.88;83.97;75503.03;5073982;28;20074;-89
2022/09/19 10:10:14;;;;;;;10.05;2.15;;;;;;;-148.88;81.90;75533.50;5073701;28;20032;-89
2022/09/19 10:12:54;;;;;;;8.90;1.92;;;;;;;-148.88;82.43;75480.69;5073151;28;20017;-90
2022/09/19 10:15:22;;;;;;;10.20;2.08;;;;;;;-148.88;80.05;75438.03;5073176;28;20103;-89
2022/09/19 10:18:00;;;;;;;6.32;1.77;;;;;;;-148.88;82.05;75460.38;5073157;28;20466;-90
2022/09/19 10:20:34;;;;;;;7.00;1.60;;;;;;;-148.88;80.77;75456.31;5073330;28;20021;-88
2022/09/19 10:22:59;;;;;;;10.65;2.30;;;;;;;-148.88;79.76;75456.31;5073452;28;20028;-90
2022/09/19 10:25:26;;;;;;;7.85;1.80;;;;;;;-148.88;79.26;75478.66;5073021;28;20025;-88
2022/09/19 10:27:52;;;;;;;7.30;1.88;;;;;;;-148.88;79.83;75482.72;5072988;28;20017;-87
2022/09/19 10:30:26;;;;;;;8.52;2.00;;;;;;;-148.88;79.44;75460.38;5073410;28;20028;-89
2022/09/19 10:32:52;;;;;;;6.70;1.65;;;;;;;-148.88;79.69;75413.66;5073220;28;20421;-89
2022/09/19 10:35:36;;;;;;;7.88;1.77;;;;;;;-148.88;78.57;75407.56;5072895;28;20082;-89
2022/09/19 10:38:01;;;;;;;6.88;1.75;;;;;;;-148.88;77.99;75476.63;5073009;28;20025;-89
2022/09/19 10:40:31;;;;;;;7.53;1.50;;;;;;;-148.88;77.64;75466.47;5055092;28;20404;-90
2022/09/19 10:42:58;;;;;;;10.50;1.90;;;;;;;-148.88;79.39;75454.28;5072846;28;20021;-87
2022/09/19 10:45:36;;;;;;;8.35;2.08;;;;;;;-148.88;77.56;75456.31;5073159;28;20060;-89
2022/09/19 10:48:17;;;;;;;8.93;1.70;;;;;;;-148.88;79.01;75472.56;5072855;28;20075;-90
2022/09/19 10:50:47;;;;;;;9.25;2.10;;;;;;;-148.88;76.56;75397.41;5073242;28;20029;-87
2022/09/19 10:53:27;;;;;;;7.30;1.80;;;;;;;-148.88;75.60;75346.63;5073041;28;20024;-90
2022/09/19 10:55:55;;;;;;;14.60;2.00;;;;;;;-148.88;72.98;75346.63;5072650;28;20087;-88
2022/09/19 10:58:27;;;;;;;8.00;2.08;;;;;;;-148.88;72.42;75352.72;5072595;28;20041;-89
2022/09/19 11:00:56;;;;;;;6.70;1.50;;;;;;;-148.88;71.86;75344.59;5072762;28;20021;-88
2022/09/19 11:03:26;;;;;;;10.23;1.65;;;;;;;-148.88;70.67;75293.81;5072620;28;20028;-87
2022/09/19 11:06:12;;;;;;;8.45;1.95;;;;;;;-148.88;70.25;75289.75;5072600;28;20519;-86
2022/09/19 11:08:44;;;;;;;9.70;1.90;;;;;;;-148.88;68.14;75314.13;5073043;28;20451;-86
2022/09/19 11:11:45;;;;;;;12.30;2.03;;;;;;;-148.88;71.63;75314.13;5076748;28;20021;-85
2022/09/19 11:14:28;;;;;;;7.72;1.95;;;;;;;-148.88;68.42;75267.44;5076288;28;20074;-88
2022/09/19 11:17:18;;;;;;;8.15;1.85;;;;;;;-148.88;69.86;75297.88;5076589;28;20027;-87
2022/09/19 11:20:08;;;;;;;8.68;1.88;;;;;;;-148.88;70.06;75295.84;5076156;28;20024;-87
2022/09/19 11:22:55;;;;;;;9.10;2.15;;;;;;;-148.88;70.48;75334.44;5076540;28;20024;-86
2022/09/19 11:25:46;;;;;;;6.95;1.75;;;;;;;-148.88;69.78;75299.91;5079696;28;20029;-86
2022/09/19 11:28:28;;;;;;;9.45;2.20;;;;;;;-148.88;70.13;75308.03;5063872;28;20016;-86
2022/09/19 11:30:58;;;;;;;7.32;1.42;;;;;;;-148.88;67.70;75411.63;5057984;28;20032;-85
2022/09/19 11:34:11;;;;;;;6.45;1.98;;;;;;;-148.88;68.61;75421.78;5075954;28;20079;-86
2022/09/19 11:36:55;;;;;;;7.95;1.50;;;;;;;-148.88;69.60;75446.16;5032893;28;20025;-87
2022/09/19 11:39:56;;;;;;;8.93;2.15;;;;;;;-148.88;71.52;75511.16;5076085;28;20040;-85
2022/09/19 11:42:29;;;;;;;9.20;1.75;;;;;;;-148.88;71.85;75464.44;5051540;28;20063;-87
2022/09/19 11:45:13;;;;;;;7.63;1.85;;;;;;;-148.88;70.96;75421.78;5075865;28;20119;-86